Terminal Aerodrome Forecast
Issued by NWS

Home | Current Version | Previous Version | Text Only | Print | Product List | Glossary On
Versions: 1 2 3 4 5 6 7 8 9 10 11 12 13 14 15 16 17 18 19 20 21 22 23 24 25 26 27 28 29 30 31 32 33 34 35 36
000
FTUS45 KLKN 221100 AAA
TAFEKO
TAF AMD
KEKO 221155Z 2212/2312 08002KT P6SM VCSH BKN100
     FM221800 26015G25KT P6SM VCTS BKN090CB
      TEMPO 2218/2221 VRB20G35KT -TSRA
     FM222100 27018G30KT P6SM VCTS BKN090CB
     FM230000 31010KT P6SM VCSH BKN080
     FM230600 VRB04KT P6SM SKC=

USA.gov is the U.S. government's official web portal to all federal, state and local government web resources and services.